sensor_id;sensor_type;location;lat;lon;timestamp;P1;durP1;ratioP1;P2;durP2;ratioP2
12467;SDS011;57850;52.922;6.256;2023-03-31T00:00:50;23.02;;;5.95;;
12467;SDS011;57850;52.922;6.256;2023-03-31T00:03:22;22.42;;;5.40;;
12467;SDS011;57850;52.922;6.256;2023-03-31T00:05:48;26.67;;;5.28;;
12467;SDS011;57850;52.922;6.256;2023-03-31T00:08:17;26.20;;;5.43;;
12467;SDS011;57850;52.922;6.256;2023-03-31T00:10:46;29.88;;;5.40;;
12467;SDS011;57850;52.922;6.256;2023-03-31T00:13:13;24.08;;;5.43;;
12467;SDS011;57850;52.922;6.256;2023-03-31T00:15:40;22.65;;;5.13;;
12467;SDS011;57850;52.922;6.256;2023-03-31T00:18:07;20.77;;;5.22;;
12467;SDS011;57850;52.922;6.256;2023-03-31T00:20:33;21.38;;;4.75;;
12467;SDS011;57850;52.922;6.256;2023-03-31T00:23:02;20.60;;;5.43;;
12467;SDS011;57850;52.922;6.256;2023-03-31T00:25:34;30.98;;;5.55;;
12467;SDS011;57850;52.922;6.256;2023-03-31T00:28:05;25.75;;;5.47;;
12467;SDS011;57850;52.922;6.256;2023-03-31T00:30:32;21.35;;;5.03;;
12467;SDS011;57850;52.922;6.256;2023-03-31T00:32:59;20.02;;;4.78;;
12467;SDS011;57850;52.922;6.256;2023-03-31T00:35:26;24.90;;;4.97;;
12467;SDS011;57850;52.922;6.256;2023-03-31T00:37:52;29.02;;;4.97;;
12467;SDS011;57850;52.922;6.256;2023-03-31T00:40:22;22.88;;;5.68;;
12467;SDS011;57850;52.922;6.256;2023-03-31T00:42:48;20.83;;;4.18;;
12467;SDS011;57850;52.922;6.256;2023-03-31T00:48:02;18.60;;;4.82;;
12467;SDS011;57850;52.922;6.256;2023-03-31T00:50:36;25.38;;;5.10;;
12467;SDS011;57850;52.922;6.256;2023-03-31T00:53:09;29.73;;;5.38;;
12467;SDS011;57850;52.922;6.256;2023-03-31T00:55:41;23.35;;;4.03;;
12467;SDS011;57850;52.922;6.256;2023-03-31T00:58:10;28.00;;;5.22;;
12467;SDS011;57850;52.922;6.256;2023-03-31T01:00:41;22.60;;;4.53;;
12467;SDS011;57850;52.922;6.256;2023-03-31T01:03:07;25.77;;;4.38;;
12467;SDS011;57850;52.922;6.256;2023-03-31T01:05:37;16.35;;;4.40;;
12467;SDS011;57850;52.922;6.256;2023-03-31T01:08:15;23.02;;;4.63;;
12467;SDS011;57850;52.922;6.256;2023-03-31T01:10:49;23.50;;;4.03;;
12467;SDS011;57850;52.922;6.256;2023-03-31T01:13:18;22.27;;;4.65;;
12467;SDS011;57850;52.922;6.256;2023-03-31T01:15:48;30.70;;;5.28;;
12467;SDS011;57850;52.922;6.256;2023-03-31T01:18:16;20.02;;;4.53;;
12467;SDS011;57850;52.922;6.256;2023-03-31T01:20:50;21.35;;;4.47;;
12467;SDS011;57850;52.922;6.256;2023-03-31T01:23:40;23.45;;;4.25;;
12467;SDS011;57850;52.922;6.256;2023-03-31T01:26:35;27.40;;;4.63;;
12467;SDS011;57850;52.922;6.256;2023-03-31T01:29:19;18.35;;;4.35;;
12467;SDS011;57850;52.922;6.256;2023-03-31T01:32:23;16.33;;;4.45;;
12467;SDS011;57850;52.922;6.256;2023-03-31T01:38:12;19.20;;;3.90;;
12467;SDS011;57850;52.922;6.256;2023-03-31T01:44:01;22.55;;;4.72;;
12467;SDS011;57850;52.922;6.256;2023-03-31T01:46:34;21.83;;;4.32;;
12467;SDS011;57850;52.922;6.256;2023-03-31T01:49:07;19.42;;;4.85;;
12467;SDS011;57850;52.922;6.256;2023-03-31T01:51:45;25.02;;;5.38;;
12467;SDS011;57850;52.922;6.256;2023-03-31T01:54:20;15.05;;;4.10;;
12467;SDS011;57850;52.922;6.256;2023-03-31T01:56:54;14.93;;;3.88;;
12467;SDS011;57850;52.922;6.256;2023-03-31T01:59:25;29.10;;;5.20;;
12467;SDS011;57850;52.922;6.256;2023-03-31T02:01:55;22.55;;;4.78;;
12467;SDS011;57850;52.922;6.256;2023-03-31T02:04:26;18.05;;;4.07;;
12467;SDS011;57850;52.922;6.256;2023-03-31T02:07:00;19.45;;;4.35;;
12467;SDS011;57850;52.922;6.256;2023-03-31T02:09:30;21.77;;;4.50;;
12467;SDS011;57850;52.922;6.256;2023-03-31T02:12:02;26.80;;;4.80;;
12467;SDS011;57850;52.922;6.256;2023-03-31T02:14:31;21.35;;;4.88;;
12467;SDS011;57850;52.922;6.256;2023-03-31T02:16:58;22.00;;;4.40;;
12467;SDS011;57850;52.922;6.256;2023-03-31T02:19:28;26.20;;;5.05;;
12467;SDS011;57850;52.922;6.256;2023-03-31T02:21:58;18.15;;;4.30;;
12467;SDS011;57850;52.922;6.256;2023-03-31T02:24:27;18.90;;;3.63;;
12467;SDS011;57850;52.922;6.256;2023-03-31T02:26:58;22.40;;;4.22;;
12467;SDS011;57850;52.922;6.256;2023-03-31T02:29:32;23.20;;;5.10;;
12467;SDS011;57850;52.922;6.256;2023-03-31T02:32:00;17.77;;;4.10;;
12467;SDS011;57850;52.922;6.256;2023-03-31T02:34:31;15.75;;;3.80;;
12467;SDS011;57850;52.922;6.256;2023-03-31T02:36:58;27.05;;;4.90;;
12467;SDS011;57850;52.922;6.256;2023-03-31T02:39:26;16.35;;;3.97;;
12467;SDS011;57850;52.922;6.256;2023-03-31T02:41:57;21.23;;;5.28;;
12467;SDS011;57850;52.922;6.256;2023-03-31T02:44:28;15.95;;;4.30;;
12467;SDS011;57850;52.922;6.256;2023-03-31T02:46:54;17.48;;;4.82;;
12467;SDS011;57850;52.922;6.256;2023-03-31T02:49:21;31.05;;;5.53;;
12467;SDS011;57850;52.922;6.256;2023-03-31T02:54:48;15.73;;;4.60;;
12467;SDS011;57850;52.922;6.256;2023-03-31T02:57:47;22.52;;;4.70;;
12467;SDS011;57850;52.922;6.256;2023-03-31T03:00:31;17.98;;;4.35;;
12467;SDS011;57850;52.922;6.256;2023-03-31T03:03:13;14.52;;;3.97;;
12467;SDS011;57850;52.922;6.256;2023-03-31T03:05:52;16.38;;;4.55;;
12467;SDS011;57850;52.922;6.256;2023-03-31T03:08:26;13.32;;;4.40;;
12467;SDS011;57850;52.922;6.256;2023-03-31T03:11:01;16.15;;;4.63;;
12467;SDS011;57850;52.922;6.256;2023-03-31T03:13:35;15.55;;;4.57;;
12467;SDS011;57850;52.922;6.256;2023-03-31T03:16:11;15.55;;;3.90;;
12467;SDS011;57850;52.922;6.256;2023-03-31T03:18:43;17.95;;;4.10;;
12467;SDS011;57850;52.922;6.256;2023-03-31T03:21:12;15.55;;;3.70;;
12467;SDS011;57850;52.922;6.256;2023-03-31T03:23:39;8.35;;;3.53;;
12467;SDS011;57850;52.922;6.256;2023-03-31T03:26:07;12.05;;;4.32;;
12467;SDS011;57850;52.922;6.256;2023-03-31T03:28:33;13.77;;;4.28;;
12467;SDS011;57850;52.922;6.256;2023-03-31T03:31:00;16.80;;;4.72;;
12467;SDS011;57850;52.922;6.256;2023-03-31T03:33:28;13.13;;;4.30;;
12467;SDS011;57850;52.922;6.256;2023-03-31T03:35:55;10.82;;;4.28;;
12467;SDS011;57850;52.922;6.256;2023-03-31T03:38:21;17.67;;;4.32;;
12467;SDS011;57850;52.922;6.256;2023-03-31T03:40:51;12.65;;;4.32;;
12467;SDS011;57850;52.922;6.256;2023-03-31T03:43:18;12.35;;;4.50;;
12467;SDS011;57850;52.922;6.256;2023-03-31T03:45:46;10.98;;;4.90;;
12467;SDS011;57850;52.922;6.256;2023-03-31T03:48:13;10.95;;;4.60;;
12467;SDS011;57850;52.922;6.256;2023-03-31T03:50:41;17.60;;;5.35;;
12467;SDS011;57850;52.922;6.256;2023-03-31T03:53:08;15.23;;;5.85;;
12467;SDS011;57850;52.922;6.256;2023-03-31T03:55:35;15.13;;;6.35;;
12467;SDS011;57850;52.922;6.256;2023-03-31T03:58:01;14.43;;;6.03;;
12467;SDS011;57850;52.922;6.256;2023-03-31T04:00:28;18.30;;;6.22;;
12467;SDS011;57850;52.922;6.256;2023-03-31T04:02:54;15.73;;;5.55;;
12467;SDS011;57850;52.922;6.256;2023-03-31T04:05:21;17.17;;;5.95;;
12467;SDS011;57850;52.922;6.256;2023-03-31T04:07:49;19.15;;;5.97;;
12467;SDS011;57850;52.922;6.256;2023-03-31T04:10:15;14.55;;;5.80;;
12467;SDS011;57850;52.922;6.256;2023-03-31T04:12:42;14.10;;;5.88;;
12467;SDS011;57850;52.922;6.256;2023-03-31T04:15:09;19.42;;;7.03;;
12467;SDS011;57850;52.922;6.256;2023-03-31T04:17:36;16.30;;;6.28;;
12467;SDS011;57850;52.922;6.256;2023-03-31T04:20:04;14.30;;;6.35;;
12467;SDS011;57850;52.922;6.256;2023-03-31T04:22:33;17.38;;;7.05;;
12467;SDS011;57850;52.922;6.256;2023-03-31T04:25:06;17.13;;;7.10;;
12467;SDS011;57850;52.922;6.256;2023-03-31T04:27:40;17.77;;;7.65;;
12467;SDS011;57850;52.922;6.256;2023-03-31T04:30:11;19.75;;;7.45;;
12467;SDS011;57850;52.922;6.256;2023-03-31T04:32:38;17.38;;;7.53;;
12467;SDS011;57850;52.922;6.256;2023-03-31T04:35:05;17.35;;;7.10;;
12467;SDS011;57850;52.922;6.256;2023-03-31T04:37:32;14.60;;;7.55;;
12467;SDS011;57850;52.922;6.256;2023-03-31T04:39:59;15.80;;;7.55;;
12467;SDS011;57850;52.922;6.256;2023-03-31T04:42:32;20.05;;;7.38;;
12467;SDS011;57850;52.922;6.256;2023-03-31T04:44:58;21.13;;;7.05;;
12467;SDS011;57850;52.922;6.256;2023-03-31T04:47:25;17.25;;;6.90;;
12467;SDS011;57850;52.922;6.256;2023-03-31T04:49:52;14.27;;;7.22;;
12467;SDS011;57850;52.922;6.256;2023-03-31T04:52:18;16.02;;;7.07;;
12467;SDS011;57850;52.922;6.256;2023-03-31T04:54:45;18.95;;;7.05;;
12467;SDS011;57850;52.922;6.256;2023-03-31T04:57:12;17.08;;;6.82;;
12467;SDS011;57850;52.922;6.256;2023-03-31T04:59:40;12.32;;;6.85;;
12467;SDS011;57850;52.922;6.256;2023-03-31T05:02:07;14.02;;;7.20;;
12467;SDS011;57850;52.922;6.256;2023-03-31T05:04:33;16.60;;;7.03;;
12467;SDS011;57850;52.922;6.256;2023-03-31T05:07:00;12.38;;;6.47;;
12467;SDS011;57850;52.922;6.256;2023-03-31T05:09:26;13.38;;;7.07;;
12467;SDS011;57850;52.922;6.256;2023-03-31T05:11:53;17.73;;;7.53;;
12467;SDS011;57850;52.922;6.256;2023-03-31T05:14:19;20.70;;;7.22;;
12467;SDS011;57850;52.922;6.256;2023-03-31T05:16:47;13.82;;;6.57;;
12467;SDS011;57850;52.922;6.256;2023-03-31T05:19:14;12.43;;;6.22;;
12467;SDS011;57850;52.922;6.256;2023-03-31T05:21:42;17.42;;;6.40;;
12467;SDS011;57850;52.922;6.256;2023-03-31T05:24:09;10.65;;;6.28;;
12467;SDS011;57850;52.922;6.256;2023-03-31T05:26:35;12.65;;;6.38;;
12467;SDS011;57850;52.922;6.256;2023-03-31T05:29:03;15.43;;;5.75;;
12467;SDS011;57850;52.922;6.256;2023-03-31T05:31:30;15.23;;;5.82;;
12467;SDS011;57850;52.922;6.256;2023-03-31T05:33:58;15.05;;;6.47;;
12467;SDS011;57850;52.922;6.256;2023-03-31T05:36:27;13.95;;;6.35;;
12467;SDS011;57850;52.922;6.256;2023-03-31T05:38:54;13.48;;;6.57;;
12467;SDS011;57850;52.922;6.256;2023-03-31T05:41:20;14.18;;;5.95;;
12467;SDS011;57850;52.922;6.256;2023-03-31T05:43:47;15.82;;;6.20;;
12467;SDS011;57850;52.922;6.256;2023-03-31T05:46:14;12.52;;;6.40;;
12467;SDS011;57850;52.922;6.256;2023-03-31T05:48:42;13.77;;;6.60;;
12467;SDS011;57850;52.922;6.256;2023-03-31T05:51:10;11.95;;;6.22;;
12467;SDS011;57850;52.922;6.256;2023-03-31T05:53:36;14.70;;;6.97;;
12467;SDS011;57850;52.922;6.256;2023-03-31T05:56:04;15.90;;;7.55;;
12467;SDS011;57850;52.922;6.256;2023-03-31T05:58:32;14.38;;;5.93;;
12467;SDS011;57850;52.922;6.256;2023-03-31T06:01:03;16.48;;;6.20;;
12467;SDS011;57850;52.922;6.256;2023-03-31T06:03:31;14.20;;;5.90;;
12467;SDS011;57850;52.922;6.256;2023-03-31T06:05:58;20.23;;;6.90;;
12467;SDS011;57850;52.922;6.256;2023-03-31T06:08:27;12.32;;;6.20;;
12467;SDS011;57850;52.922;6.256;2023-03-31T06:10:54;10.13;;;5.45;;
12467;SDS011;57850;52.922;6.256;2023-03-31T06:13:21;16.30;;;6.70;;
12467;SDS011;57850;52.922;6.256;2023-03-31T06:15:54;13.82;;;5.05;;
12467;SDS011;57850;52.922;6.256;2023-03-31T06:18:21;10.45;;;5.00;;
12467;SDS011;57850;52.922;6.256;2023-03-31T06:20:49;13.02;;;5.20;;
12467;SDS011;57850;52.922;6.256;2023-03-31T06:23:16;9.82;;;4.65;;
12467;SDS011;57850;52.922;6.256;2023-03-31T06:25:44;11.52;;;4.70;;
12467;SDS011;57850;52.922;6.256;2023-03-31T06:28:11;9.80;;;4.72;;
12467;SDS011;57850;52.922;6.256;2023-03-31T06:30:38;10.60;;;4.32;;
12467;SDS011;57850;52.922;6.256;2023-03-31T06:33:04;9.65;;;4.70;;
12467;SDS011;57850;52.922;6.256;2023-03-31T06:35:31;10.43;;;5.47;;
12467;SDS011;57850;52.922;6.256;2023-03-31T06:37:58;6.72;;;4.38;;
12467;SDS011;57850;52.922;6.256;2023-03-31T06:40:24;13.02;;;4.90;;
12467;SDS011;57850;52.922;6.256;2023-03-31T06:42:52;10.27;;;4.43;;
12467;SDS011;57850;52.922;6.256;2023-03-31T06:45:19;13.88;;;5.65;;
12467;SDS011;57850;52.922;6.256;2023-03-31T06:47:46;13.23;;;5.60;;
12467;SDS011;57850;52.922;6.256;2023-03-31T06:50:13;9.02;;;5.15;;
12467;SDS011;57850;52.922;6.256;2023-03-31T06:52:39;9.15;;;5.45;;
12467;SDS011;57850;52.922;6.256;2023-03-31T06:55:06;11.88;;;5.70;;
12467;SDS011;57850;52.922;6.256;2023-03-31T06:57:33;12.18;;;5.28;;
12467;SDS011;57850;52.922;6.256;2023-03-31T07:00:02;7.25;;;4.82;;
12467;SDS011;57850;52.922;6.256;2023-03-31T07:02:31;8.68;;;4.60;;
12467;SDS011;57850;52.922;6.256;2023-03-31T07:04:58;12.65;;;5.30;;
12467;SDS011;57850;52.922;6.256;2023-03-31T07:07:25;9.50;;;4.72;;
12467;SDS011;57850;52.922;6.256;2023-03-31T07:09:51;7.72;;;4.90;;
12467;SDS011;57850;52.922;6.256;2023-03-31T07:12:18;8.95;;;5.22;;
12467;SDS011;57850;52.922;6.256;2023-03-31T07:14:45;11.07;;;5.53;;
12467;SDS011;57850;52.922;6.256;2023-03-31T07:17:13;10.40;;;5.22;;
12467;SDS011;57850;52.922;6.256;2023-03-31T07:19:39;10.88;;;5.45;;
12467;SDS011;57850;52.922;6.256;2023-03-31T07:22:12;9.95;;;5.18;;
12467;SDS011;57850;52.922;6.256;2023-03-31T07:24:38;11.93;;;4.53;;
12467;SDS011;57850;52.922;6.256;2023-03-31T07:27:05;10.10;;;4.72;;
12467;SDS011;57850;52.922;6.256;2023-03-31T07:29:38;11.77;;;4.80;;
12467;SDS011;57850;52.922;6.256;2023-03-31T07:32:04;8.98;;;4.80;;
12467;SDS011;57850;52.922;6.256;2023-03-31T07:34:32;8.25;;;4.03;;
12467;SDS011;57850;52.922;6.256;2023-03-31T07:36:59;10.80;;;4.43;;
12467;SDS011;57850;52.922;6.256;2023-03-31T07:39:26;9.15;;;4.07;;
12467;SDS011;57850;52.922;6.256;2023-03-31T07:41:52;10.52;;;4.50;;
12467;SDS011;57850;52.922;6.256;2023-03-31T07:44:19;11.55;;;4.70;;
12467;SDS011;57850;52.922;6.256;2023-03-31T07:46:47;12.30;;;4.60;;
12467;SDS011;57850;52.922;6.256;2023-03-31T07:49:14;9.13;;;4.28;;
12467;SDS011;57850;52.922;6.256;2023-03-31T07:51:42;10.90;;;4.75;;
12467;SDS011;57850;52.922;6.256;2023-03-31T07:54:08;10.77;;;4.68;;
12467;SDS011;57850;52.922;6.256;2023-03-31T07:56:35;14.45;;;4.47;;
12467;SDS011;57850;52.922;6.256;2023-03-31T07:59:02;11.32;;;4.88;;
12467;SDS011;57850;52.922;6.256;2023-03-31T08:01:29;10.73;;;5.15;;
12467;SDS011;57850;52.922;6.256;2023-03-31T08:03:55;9.10;;;4.88;;
12467;SDS011;57850;52.922;6.256;2023-03-31T08:06:23;11.73;;;4.70;;
12467;SDS011;57850;52.922;6.256;2023-03-31T08:08:52;11.15;;;4.80;;
12467;SDS011;57850;52.922;6.256;2023-03-31T08:11:19;8.60;;;4.65;;
12467;SDS011;57850;52.922;6.256;2023-03-31T08:13:46;16.05;;;5.03;;
12467;SDS011;57850;52.922;6.256;2023-03-31T08:16:13;13.90;;;5.78;;
12467;SDS011;57850;52.922;6.256;2023-03-31T08:18:40;11.90;;;5.10;;
12467;SDS011;57850;52.922;6.256;2023-03-31T08:21:07;12.38;;;4.72;;
12467;SDS011;57850;52.922;6.256;2023-03-31T08:23:34;14.77;;;5.07;;
12467;SDS011;57850;52.922;6.256;2023-03-31T08:26:10;10.05;;;4.55;;
12467;SDS011;57850;52.922;6.256;2023-03-31T08:28:38;12.70;;;4.75;;
12467;SDS011;57850;52.922;6.256;2023-03-31T08:31:05;13.45;;;5.20;;
12467;SDS011;57850;52.922;6.256;2023-03-31T08:33:32;19.33;;;5.63;;
12467;SDS011;57850;52.922;6.256;2023-03-31T08:36:02;11.88;;;4.50;;
12467;SDS011;57850;52.922;6.256;2023-03-31T08:38:32;13.30;;;4.68;;
12467;SDS011;57850;52.922;6.256;2023-03-31T08:41:02;11.57;;;4.60;;
12467;SDS011;57850;52.922;6.256;2023-03-31T08:43:32;11.52;;;4.63;;
12467;SDS011;57850;52.922;6.256;2023-03-31T08:46:02;14.60;;;5.13;;
12467;SDS011;57850;52.922;6.256;2023-03-31T08:48:31;11.93;;;5.38;;
12467;SDS011;57850;52.922;6.256;2023-03-31T08:51:04;12.00;;;5.32;;
12467;SDS011;57850;52.922;6.256;2023-03-31T08:53:38;10.63;;;4.95;;
12467;SDS011;57850;52.922;6.256;2023-03-31T08:56:12;13.35;;;5.13;;
12467;SDS011;57850;52.922;6.256;2023-03-31T08:58:43;12.43;;;4.47;;
12467;SDS011;57850;52.922;6.256;2023-03-31T09:01:15;13.00;;;4.70;;
12467;SDS011;57850;52.922;6.256;2023-03-31T09:03:52;12.10;;;5.07;;
12467;SDS011;57850;52.922;6.256;2023-03-31T09:06:34;11.55;;;4.75;;
12467;SDS011;57850;52.922;6.256;2023-03-31T09:09:04;10.52;;;4.75;;
12467;SDS011;57850;52.922;6.256;2023-03-31T09:11:36;12.93;;;4.93;;
12467;SDS011;57850;52.922;6.256;2023-03-31T09:14:16;9.32;;;4.70;;
12467;SDS011;57850;52.922;6.256;2023-03-31T09:16:52;8.52;;;3.97;;
12467;SDS011;57850;52.922;6.256;2023-03-31T09:19:29;9.75;;;4.20;;
12467;SDS011;57850;52.922;6.256;2023-03-31T09:22:01;10.40;;;3.88;;
12467;SDS011;57850;52.922;6.256;2023-03-31T09:24:31;6.25;;;3.85;;
12467;SDS011;57850;52.922;6.256;2023-03-31T09:27:02;10.10;;;4.22;;
12467;SDS011;57850;52.922;6.256;2023-03-31T09:29:39;9.65;;;3.97;;
12467;SDS011;57850;52.922;6.256;2023-03-31T09:32:12;8.88;;;4.18;;
12467;SDS011;57850;52.922;6.256;2023-03-31T09:34:40;10.70;;;4.05;;
12467;SDS011;57850;52.922;6.256;2023-03-31T09:37:07;10.38;;;4.50;;
12467;SDS011;57850;52.922;6.256;2023-03-31T09:39:35;6.60;;;3.70;;
12467;SDS011;57850;52.922;6.256;2023-03-31T09:42:02;8.18;;;3.25;;
12467;SDS011;57850;52.922;6.256;2023-03-31T09:44:31;6.38;;;3.53;;
12467;SDS011;57850;52.922;6.256;2023-03-31T09:47:04;6.75;;;3.30;;
12467;SDS011;57850;52.922;6.256;2023-03-31T09:49:33;5.97;;;3.40;;
12467;SDS011;57850;52.922;6.256;2023-03-31T09:52:02;6.93;;;3.40;;
12467;SDS011;57850;52.922;6.256;2023-03-31T09:54:35;9.57;;;3.55;;
12467;SDS011;57850;52.922;6.256;2023-03-31T09:57:11;6.20;;;3.15;;
12467;SDS011;57850;52.922;6.256;2023-03-31T09:59:41;4.82;;;3.20;;
12467;SDS011;57850;52.922;6.256;2023-03-31T10:05:00;5.65;;;3.50;;
12467;SDS011;57850;52.922;6.256;2023-03-31T10:07:27;10.55;;;3.85;;
12467;SDS011;57850;52.922;6.256;2023-03-31T10:09:54;8.65;;;3.67;;
12467;SDS011;57850;52.922;6.256;2023-03-31T10:12:25;8.82;;;3.85;;
12467;SDS011;57850;52.922;6.256;2023-03-31T10:15:02;5.10;;;3.53;;
12467;SDS011;57850;52.922;6.256;2023-03-31T10:17:43;6.93;;;4.13;;
12467;SDS011;57850;52.922;6.256;2023-03-31T10:20:17;8.60;;;4.63;;
12467;SDS011;57850;52.922;6.256;2023-03-31T10:22:46;7.75;;;3.38;;
12467;SDS011;57850;52.922;6.256;2023-03-31T10:25:15;8.95;;;3.55;;
12467;SDS011;57850;52.922;6.256;2023-03-31T10:27:44;7.72;;;3.63;;
12467;SDS011;57850;52.922;6.256;2023-03-31T10:30:19;9.32;;;3.78;;
12467;SDS011;57850;52.922;6.256;2023-03-31T10:32:48;8.05;;;3.63;;
12467;SDS011;57850;52.922;6.256;2023-03-31T10:35:20;6.80;;;3.75;;
12467;SDS011;57850;52.922;6.256;2023-03-31T10:37:50;10.18;;;3.85;;
12467;SDS011;57850;52.922;6.256;2023-03-31T10:40:21;6.53;;;3.47;;
12467;SDS011;57850;52.922;6.256;2023-03-31T10:42:57;8.38;;;3.30;;
12467;SDS011;57850;52.922;6.256;2023-03-31T10:45:28;7.50;;;3.22;;
12467;SDS011;57850;52.922;6.256;2023-03-31T10:47:57;5.65;;;2.90;;
12467;SDS011;57850;52.922;6.256;2023-03-31T10:50:26;6.35;;;3.10;;
12467;SDS011;57850;52.922;6.256;2023-03-31T10:53:00;7.57;;;3.55;;
12467;SDS011;57850;52.922;6.256;2023-03-31T10:55:30;5.63;;;2.83;;
12467;SDS011;57850;52.922;6.256;2023-03-31T10:58:03;6.15;;;2.78;;
12467;SDS011;57850;52.922;6.256;2023-03-31T11:00:37;7.22;;;3.50;;
12467;SDS011;57850;52.922;6.256;2023-03-31T11:03:28;8.90;;;3.40;;
12467;SDS011;57850;52.922;6.256;2023-03-31T11:06:06;8.52;;;3.25;;
12467;SDS011;57850;52.922;6.256;2023-03-31T11:08:42;8.85;;;3.10;;
12467;SDS011;57850;52.922;6.256;2023-03-31T11:14:14;7.88;;;3.25;;
12467;SDS011;57850;52.922;6.256;2023-03-31T11:16:50;6.82;;;2.80;;
12467;SDS011;57850;52.922;6.256;2023-03-31T11:19:28;5.30;;;2.70;;
12467;SDS011;57850;52.922;6.256;2023-03-31T11:22:06;7.55;;;3.28;;
12467;SDS011;57850;52.922;6.256;2023-03-31T11:24:53;10.27;;;2.95;;
12467;SDS011;57850;52.922;6.256;2023-03-31T11:27:36;9.77;;;3.60;;
12467;SDS011;57850;52.922;6.256;2023-03-31T11:30:16;6.43;;;3.03;;
12467;SDS011;57850;52.922;6.256;2023-03-31T11:32:53;7.30;;;3.03;;
12467;SDS011;57850;52.922;6.256;2023-03-31T11:35:38;7.63;;;2.80;;
12467;SDS011;57850;52.922;6.256;2023-03-31T11:38:32;5.07;;;2.45;;
12467;SDS011;57850;52.922;6.256;2023-03-31T11:41:18;5.63;;;2.70;;
12467;SDS011;57850;52.922;6.256;2023-03-31T11:43:46;6.20;;;3.03;;
12467;SDS011;57850;52.922;6.256;2023-03-31T11:46:16;6.75;;;3.00;;
12467;SDS011;57850;52.922;6.256;2023-03-31T11:48:49;6.63;;;3.08;;
12467;SDS011;57850;52.922;6.256;2023-03-31T11:51:22;7.50;;;3.53;;
12467;SDS011;57850;52.922;6.256;2023-03-31T11:53:52;7.13;;;3.00;;
12467;SDS011;57850;52.922;6.256;2023-03-31T11:56:21;7.50;;;3.15;;
12467;SDS011;57850;52.922;6.256;2023-03-31T11:58:52;8.07;;;3.33;;
12467;SDS011;57850;52.922;6.256;2023-03-31T12:01:23;9.52;;;3.60;;
12467;SDS011;57850;52.922;6.256;2023-03-31T12:03:57;11.07;;;3.67;;
12467;SDS011;57850;52.922;6.256;2023-03-31T12:06:30;10.32;;;3.72;;
12467;SDS011;57850;52.922;6.256;2023-03-31T12:09:02;13.43;;;3.90;;
12467;SDS011;57850;52.922;6.256;2023-03-31T12:11:34;11.07;;;3.50;;
12467;SDS011;57850;52.922;6.256;2023-03-31T12:14:08;12.15;;;4.25;;
12467;SDS011;57850;52.922;6.256;2023-03-31T12:16:50;11.60;;;3.22;;
12467;SDS011;57850;52.922;6.256;2023-03-31T12:19:21;11.05;;;4.22;;
12467;SDS011;57850;52.922;6.256;2023-03-31T12:21:53;7.95;;;3.63;;
12467;SDS011;57850;52.922;6.256;2023-03-31T12:24:23;8.93;;;4.20;;
12467;SDS011;57850;52.922;6.256;2023-03-31T12:26:52;14.05;;;4.10;;
12467;SDS011;57850;52.922;6.256;2023-03-31T12:29:29;8.95;;;3.80;;
12467;SDS011;57850;52.922;6.256;2023-03-31T12:31:59;13.75;;;4.43;;
12467;SDS011;57850;52.922;6.256;2023-03-31T12:34:32;10.32;;;4.57;;
12467;SDS011;57850;52.922;6.256;2023-03-31T12:40:11;11.52;;;4.93;;
12467;SDS011;57850;52.922;6.256;2023-03-31T12:42:53;13.93;;;5.10;;
12467;SDS011;57850;52.922;6.256;2023-03-31T12:45:38;12.02;;;4.13;;
12467;SDS011;57850;52.922;6.256;2023-03-31T12:48:16;9.23;;;4.00;;
12467;SDS011;57850;52.922;6.256;2023-03-31T12:54:05;13.10;;;5.07;;
12467;SDS011;57850;52.922;6.256;2023-03-31T12:57:01;13.73;;;4.35;;
12467;SDS011;57850;52.922;6.256;2023-03-31T12:59:31;13.63;;;4.72;;
12467;SDS011;57850;52.922;6.256;2023-03-31T13:02:16;18.40;;;5.00;;
12467;SDS011;57850;52.922;6.256;2023-03-31T13:04:48;17.45;;;5.63;;
12467;SDS011;57850;52.922;6.256;2023-03-31T13:13:20;8.90;;;3.17;;
12467;SDS011;57850;52.922;6.256;2023-03-31T13:15:48;5.40;;;2.13;;
12467;SDS011;57850;52.922;6.256;2023-03-31T13:18:17;9.35;;;2.33;;
12467;SDS011;57850;52.922;6.256;2023-03-31T13:20:45;5.93;;;2.15;;
12467;SDS011;57850;52.922;6.256;2023-03-31T13:23:24;6.30;;;2.00;;
12467;SDS011;57850;52.922;6.256;2023-03-31T13:25:53;7.40;;;2.80;;
12467;SDS011;57850;52.922;6.256;2023-03-31T13:28:25;7.95;;;2.67;;
12467;SDS011;57850;52.922;6.256;2023-03-31T13:31:06;8.95;;;2.25;;
12467;SDS011;57850;52.922;6.256;2023-03-31T13:33:36;11.05;;;2.70;;
12467;SDS011;57850;52.922;6.256;2023-03-31T13:39:27;6.95;;;2.53;;
12467;SDS011;57850;52.922;6.256;2023-03-31T13:42:19;5.85;;;2.42;;
12467;SDS011;57850;52.922;6.256;2023-03-31T13:45:05;7.20;;;2.63;;
12467;SDS011;57850;52.922;6.256;2023-03-31T13:47:55;10.05;;;2.83;;
12467;SDS011;57850;52.922;6.256;2023-03-31T13:53:34;7.95;;;3.20;;
12467;SDS011;57850;52.922;6.256;2023-03-31T13:56:21;8.40;;;2.17;;
12467;SDS011;57850;52.922;6.256;2023-03-31T14:05:22;8.93;;;2.30;;
12467;SDS011;57850;52.922;6.256;2023-03-31T14:07:54;7.53;;;2.65;;
12467;SDS011;57850;52.922;6.256;2023-03-31T14:10:24;6.05;;;2.78;;
12467;SDS011;57850;52.922;6.256;2023-03-31T14:13:04;5.57;;;2.35;;
12467;SDS011;57850;52.922;6.256;2023-03-31T14:15:32;6.05;;;2.33;;
12467;SDS011;57850;52.922;6.256;2023-03-31T14:18:01;3.55;;;1.40;;
12467;SDS011;57850;52.922;6.256;2023-03-31T14:20:31;3.47;;;1.42;;
12467;SDS011;57850;52.922;6.256;2023-03-31T14:23:07;8.30;;;1.85;;
12467;SDS011;57850;52.922;6.256;2023-03-31T14:25:44;3.78;;;1.67;;
12467;SDS011;57850;52.922;6.256;2023-03-31T14:28:32;5.05;;;1.92;;
12467;SDS011;57850;52.922;6.256;2023-03-31T14:31:11;6.40;;;1.85;;
12467;SDS011;57850;52.922;6.256;2023-03-31T14:33:47;5.28;;;1.80;;
12467;SDS011;57850;52.922;6.256;2023-03-31T14:36:24;4.47;;;1.95;;
12467;SDS011;57850;52.922;6.256;2023-03-31T14:39:00;4.70;;;1.27;;
12467;SDS011;57850;52.922;6.256;2023-03-31T14:41:28;4.95;;;1.70;;
12467;SDS011;57850;52.922;6.256;2023-03-31T14:43:57;4.13;;;1.60;;
12467;SDS011;57850;52.922;6.256;2023-03-31T14:46:28;4.97;;;2.17;;
12467;SDS011;57850;52.922;6.256;2023-03-31T14:48:56;4.25;;;2.05;;
12467;SDS011;57850;52.922;6.256;2023-03-31T14:51:25;5.13;;;1.67;;
12467;SDS011;57850;52.922;6.256;2023-03-31T14:53:56;4.63;;;2.40;;
12467;SDS011;57850;52.922;6.256;2023-03-31T14:56:25;4.05;;;1.63;;
12467;SDS011;57850;52.922;6.256;2023-03-31T14:58:59;5.88;;;2.35;;
12467;SDS011;57850;52.922;6.256;2023-03-31T15:01:28;4.75;;;2.00;;
12467;SDS011;57850;52.922;6.256;2023-03-31T15:03:59;5.63;;;1.92;;
12467;SDS011;57850;52.922;6.256;2023-03-31T15:06:29;8.05;;;2.72;;
12467;SDS011;57850;52.922;6.256;2023-03-31T15:08:59;5.85;;;2.40;;
12467;SDS011;57850;52.922;6.256;2023-03-31T15:11:28;5.70;;;1.88;;
12467;SDS011;57850;52.922;6.256;2023-03-31T15:13:56;5.47;;;2.30;;
12467;SDS011;57850;52.922;6.256;2023-03-31T15:16:33;4.40;;;2.10;;
12467;SDS011;57850;52.922;6.256;2023-03-31T15:19:09;9.50;;;2.85;;
12467;SDS011;57850;52.922;6.256;2023-03-31T15:21:38;8.10;;;2.53;;
12467;SDS011;57850;52.922;6.256;2023-03-31T15:24:05;6.47;;;2.67;;
12467;SDS011;57850;52.922;6.256;2023-03-31T15:26:33;6.47;;;2.72;;
12467;SDS011;57850;52.922;6.256;2023-03-31T15:29:03;7.55;;;2.70;;
12467;SDS011;57850;52.922;6.256;2023-03-31T15:31:34;5.75;;;2.30;;
12467;SDS011;57850;52.922;6.256;2023-03-31T15:34:10;6.30;;;2.45;;
12467;SDS011;57850;52.922;6.256;2023-03-31T15:36:39;12.20;;;3.40;;
12467;SDS011;57850;52.922;6.256;2023-03-31T15:39:06;10.60;;;2.75;;
12467;SDS011;57850;52.922;6.256;2023-03-31T15:41:33;9.73;;;2.63;;
12467;SDS011;57850;52.922;6.256;2023-03-31T15:44:04;8.85;;;2.63;;